Database: COMPET-N - COOP - 3PL - 4PL - CNDOOM

WAD: Doom | Doom 2 | TNT | Plutonia | AV | HR | Scythe | MM | MM2 | Requiem | CE
Category: speed | nmare | max | nm100s | tyson | pacifist | fast | respawn | nomo | misc | built | all
Highscore: ALL | IWAD | PWAD | Country | Continent

Remove: wad | map | category | player | all
MapPlayerTimeDateFilenameCommentsDL
E1M1: HangarRadek Pecka32.002002-05-13r1m1-032.zip - 542
MAP01: The GatewayRadek Pecka37.002004-08-04rr01-037.zip - 468
MAP01: The GatewayRadek Pecka40.002002-02-25rr01-040.zip - 338
MAP20: The Forsaken HallRadek Pecka41.002003-03-05rr20-041.zip - 247
MAP01: System ControlRadek Pecka47.002001-10-22er01-047.zip - 404
MAP01: System ControlRadek Pecka50.002001-10-19er01-050.zip - 331
MAP02: SacrificiumRadek Pecka1:02.002004-08-03rr02-102.zip - 297
MAP02: SacrificiumRadek Pecka1:06.002001-11-23rr02-106.zip - 174
MAP04: The FocusRadek Pecka1:09.002001-05-21re04-109.zip - 308
MAP02: The Feeding PitRadek Pecka1:09.002002-04-10m202r109.zip - 319
MAP02: UnderhallsRadek Pecka1:10.002003-01-01re02-110.zip - 239
MAP02: UnderhallsRadek Pecka1:14.002000-08-20re02-114.zip - 198
MAP01: OutpostRadek Pecka1:21.002002-05-02m201r121.zip - 359
E2M1: Deimos AnomalyRadek Pecka1:24.002001-01-14r2m1-124.zip - 148
E4M4: Unruly EvilRadek Pecka1:27.002001-03-26r4m4-127.zip - 255
MAP22: The CatacombsRadek Pecka1:27.002001-05-21re22-127.zip - 268
MAP25: BloodfallsRadek Pecka1:30.002003-01-13re25-130.zip - 278
E1M4: Command ControlRadek Pecka1:35.002003-02-02r1m4-135.zip - 329
E4M1: Hell BeneathRadek Pecka1:37.002001-12-04r4m1-137.zip - 291
E3M7: Gate To LimboRadek Pecka1:45.002000-09-20r3m7-145.zip - 259
E1M4: Command ControlRadek Pecka1:50.002000-08-27r1m4-150.zip - 185
E4M7: And Hell FollowedRadek Pecka1:50.002001-11-25r4m7-150.zip - 279
E3M9: WarrensRadek Pecka1:54.002002-05-12r3m9-154.zip - 269
E4M5: They Will RepentRadek Pecka1:54.002001-12-07r4m5-154.zip - 279
E3M2: Slough Of DespairRadek Pecka1:55.002000-08-27r3m2-155.zip - 294
MAP10: RedemptionRadek Pecka1:57.002003-02-26er10-157.zip - 265
E4M3: Sever The WickedRadek Pecka1:58.002001-12-07r4m3-158.zip - 285
E4M9: FearRadek Pecka1:59.002001-12-08r4m9-159.zip - 289
E2M3: RefineryRadek Pecka2:07.002001-12-02r2m3-207.zip - 255
E3M6: Mt. ErebusRadek Pecka2:07.002000-11-23r3m6-207.zip - 287
E3M3: PandemoniumRadek Pecka2:14.002000-10-20r3m3-214.zip - 148
E1M9: Military BaseRadek Pecka2:15.002000-08-27r1m9-215.zip - 157
MAP11: Circle Of DeathRadek Pecka2:15.002002-03-06re11-215.zip - 258
MAP28: The Spirit WorldRadek Pecka2:18.002002-03-02re28-218.zip - 262
E3M6: Mt. ErebusRadek Pecka2:22.002000-08-27r3m6-222.zip - 165
MAP31: WolfensteinRadek Pecka2:22.002002-02-28re31-222.zip - 280
MAP01: CongoRadek Pecka2:26.002002-04-28pr01-226.zip - 367
E1M3: Toxin RefineryRadek Pecka2:27.002000-11-15r1m3-227.zip - 198
MAP05: The Waste TunnelsRadek Pecka2:27.002001-05-22re05-227.zip - 249
E1M7: Computer StationRadek Pecka2:31.002000-11-15r1m7-231.zip - 157
MAP18: The CourtyardRadek Pecka2:37.002002-03-17re18-237.zip - 254
E1M5: Phobos LabRadek Pecka2:39.002000-08-27r1m5-239.zip - 198
E4M6: Against Thee WickedlyRadek Pecka2:43.002001-12-09r4m6-243.zip - 301
E3M5: Unholy CathedralRadek Pecka2:44.002001-11-30r3m5-244.zip - 244
MAP27: Monster CondoRadek Pecka2:52.002002-03-03re27-252.zip - 255
MAP03: Power ControlRadek Pecka2:56.002003-02-26er03-256.zip - 276
E2M2: Containment AreaRadek Pecka2:59.002001-12-04r2m2-259.zip - 262
MAP10: Refueling BaseRadek Pecka3:25.002002-04-29re10-325.zip - 265
E1M6: Central ProcessingRadek Pecka3:36.002000-08-27r1m6-336.zip - 273
E2M7: Spawning VatsRadek Pecka3:36.002000-11-14r2m7-336.zip - 243
E2M6: Halls Of The DamnedRadek Pecka3:46.002000-09-03r2m6-346.zip - 242
E2M5: Command CenterRadek Pecka3:47.002000-08-26r2m5-347.zip - 281
E2M4: Deimos LabRadek Pecka3:48.002000-08-26r2m4-348.zip - 143
MAP11: HuntedRadek Pecka3:49.002002-03-28pr11-349.zip - 185
E3M4: House Of PainRadek Pecka4:09.002000-11-27r3m4-409.zip - 240
E2M6: Halls Of The DamnedRadek Pecka4:21.002000-08-26r2m6-421.zip - 172
MAP19: The CitadelRadek Pecka4:54.002001-05-21re19-454.zip - 154
Remove: wad | map | category | player | all